Tiempo atmosférico en la estación meteorológica de Torrecilla De Los Angeles, Cáceres (462 m.)



Fecha
DESCASC
Temp. máxima en grados centígrados (hora)
DESCASC
Temp. mínima en grados centígrados (hora)
DESCASC
Temp. media en grados centígrados
DESCASC
Racha de viento máxima en m/sg (hora)
DESCASC
Velocidad máxima media en intervalos de 10 minutos(hora)
DESCASC
Precipitaciones diarias en mm
DESCASC
Precipitaciones de 00:00 a 06:00 en mm
DESCASC
Precipitaciones de 06:00 a 12:00 en mm
DESCASC
Precipitaciones de 12:00 a 18:00 en mm
DESCASC
Precipitaciones de 18:00 a 24:00 en mm
DESCASC
22-08-2019 35.8 (17:50) 15.2 (07:40) 25.5 8.89 (16:10) 5 (16:50) 0 0 0 0 0
21-08-2019 34 (16:40) 18.1 (08:10) 26.1 7.78 (02:50) 4.44 (03:40) 0 0 0 0 0
20-08-2019 33.3 (17:30) 17.8 (05:10) 25.5 10.83 (13:10) 5.83 (01:10) 0 0 0 0 0
19-08-2019 29.8 (15:10) 15.5 (07:30) 22.6 10.56 (00:50) 6.11 (01:20) 0 0 0 0 0
18-08-2019 33.9 (17:40) 18.2 (00:00) 26.1 11.39 (22:50) 6.67 (22:10) 0 0 0 0 0
17-08-2019 37.4 (16:40) 17.2 (00:00) 27.3 11.39 (23:10) 6.11 (23:50) 0 0 0 0 0
16-08-2019 37.4 (19:10) 18.7 (00:00) 28.1 12.5 (00:20) 7.5 (00:10) 0 0 0 0 0
15-08-2019 37.6 (18:00) 19.4 (00:00) 28.5 12.78 (23:59) 7.22 (00:10) 0 0 0 0 0
14-08-2019 35.8 (16:20) 14.9 (00:00) 25.3 13.89 (23:40) 8.06 (23:40) 0 0 0 0 0
13-08-2019 32.7 (18:00) 14.1 (00:00) 23.4 8.61 (21:00) 4.44 (21:00) 0 0 0 0 0
12-08-2019 29.3 (18:10) 14.2 (00:00) 21.7 14.17 (00:20) 8.06 (00:40) 0 0 0 0 0
11-08-2019 26.7 (17:10) 16 (00:00) 21.4 15.56 (23:30) 9.17 (23:59) 0 0 0 0 0
10-08-2019 30.8 (18:30) 12.9 (00:00) 21.8 12.22 (23:59) 7.22 (23:59) 0 0 0 0 0
09-08-2019 23.5 (00:00) 15.3 (00:00) 19.4 9.72 (12:10) 5.28 (11:50) 9.2 0 6.6 2.6 0
08-08-2019 32.5 (17:10) 16.8 (00:00) 24.6 11.39 (18:00) 5.83 (16:50) 0 0 0 0 0
07-08-2019 26.2 (17:40) 18 (00:00) 22.1 7.22 (00:10) 3.61 (00:10) 0 0 0 0 0
06-08-2019 34.7 (17:40) 17.4 (00:00) 26.1 11.67 (00:20) 6.39 (01:00) 0 0 0 0 0
05-08-2019 35.9 (18:50) 16.3 (00:00) 26.1 10.56 (23:59) 6.67 (23:50) 0 0 0 0 0
04-08-2019 35.8 (17:30) 17.9 (00:00) 26.8 12.5 (02:30) 6.94 (02:30) 0 0 0 0 0
03-08-2019 36.4 (17:40) 17.4 (00:00) 26.9 11.11 (23:30) 6.67 (23:10) 0 0 0 0 0
02-08-2019 36.3 (18:50) 15.3 (00:00) 25.8 10.83 (00:20) 5.28 (00:20) 0 0 0 0 0
01-08-2019 35.2 (17:50) 16.1 (00:00) 25.7 11.11 (23:10) 6.94 (22:50) 0 0 0 0 0
31-07-2019 34.3 (17:00) 18.5 (00:00) 26.4 8.89 (22:00) 5 (21:00) 0 0 0 0 0
30-07-2019 31.1 (17:40) 14.1 (00:00) 22.6 15.56 (00:40) 9.17 (00:40) 0 0 0 0 0
29-07-2019 29.8 (17:30) 16.5 (00:00) 23.1 15.83 (23:50) 8.89 (23:50) 0 0 0 0 0
28-07-2019 32.4 (18:20) 15.4 (00:00) 23.9 10.56 (00:30) 6.67 (00:20) 0 0 0 0 0
27-07-2019 27.8 (19:40) 17 (00:00) 22.4 13.89 (00:20) 8.61 (00:20) 0 0 0 0 0
26-07-2019 29.3 (16:50) 16.5 (00:00) 22.9 14.72 (09:30) 8.33 (07:40) 0 0 0 0 0

Gráficas

Temp. máximas Temp. mínimas Temp. medias Precipitaciones Rachas de viento máximas Velocidades máximas media en intervalos de 10 minutos

Datos horarios

Fecha y hora oficial Temperatura (ºC) Velocidad del viento (km/h) Dirección del viento Racha (km/h) Dirección de racha Precipitación (mm) Presión (hPa) Tendencia (hPa) Humedad (%)
2019-08-24 23:00:00 23.3 3 Norte 8 Noroeste 0 -- -- 34
2019-08-24 22:00:00 25.7 4 Norte 9 Norte 0 -- -- 30
2019-08-24 21:00:00 29.4 4 Norte 9 Noroeste 0 -- -- 26
2019-08-24 20:00:00 35.1 4 Sudoeste 17 Oeste 0 -- -- 20
2019-08-24 19:00:00 36.1 5 Oeste 19 Sur 0 -- -- 18
2019-08-24 18:00:00 35.5 11 Sudoeste 21 Sudoeste 0 -- -- 19
2019-08-24 17:00:00 36.5 10 Sudoeste 31 Oeste 0 -- -- 18
2019-08-24 16:00:00 36.5 11 Sur 28 Sur 0 -- -- 18
2019-08-24 15:00:00 36.3 13 Sudoeste 37 Oeste 0 -- -- 19
2019-08-24 14:00:00 35.7 13 Sur 22 Sur 0 -- -- 19
2019-08-24 13:00:00 34.6 13 Sudoeste 24 Sur 0 -- -- 19
2019-08-24 12:00:00 33.2 11 Sudoeste 18 Sudoeste 0 -- -- 23
2019-08-24 11:00:00 30.8 6 Sur 12 Sur 0 -- -- 30
2019-08-24 10:00:00 26.6 4 Norte 12 Nordeste 0 -- -- 39
2019-08-24 09:00:00 21.1 4 Norte 10 Nordeste 0 -- -- 50
2019-08-24 08:00:00 17.5 4 Norte 8 Norte 0 -- -- 59
2019-08-24 07:00:00 19 0 Calma 8 Noroeste 0 -- -- 54
2019-08-24 06:00:00 19.4 5 Noroeste 8 Norte 0 -- -- 52
2019-08-24 05:00:00 20.8 0 Calma 6 Nordeste 0 -- -- 50
2019-08-24 04:00:00 21.4 0 Calma 9 Nordeste 0 -- -- 48
2019-08-24 03:00:00 21.6 2 Nordeste 12 Nordeste 0 -- -- 49
2019-08-24 02:00:00 23.1 4 Nordeste 16 Nordeste 0 -- -- 42
2019-08-24 01:00:00 24 6 Nordeste 18 Norte 0 -- -- 39
2019-08-24 00:00:00 22.1 3 Norte 9 Noroeste 0 -- -- 38
2019-08-23 23:00:00 22.2 3 Noroeste 7 Nordeste 0 -- -- 39
2019-08-23 22:00:00 25.9 0 Calma 6 Noroeste 0 -- -- 33
2019-08-23 21:00:00 29.7 4 Noroeste 14 Sur 0 -- -- 28
2019-08-23 20:00:00 34.3 9 Sur 18 Sur 0 -- -- 21
2019-08-23 19:00:00 35.8 10 Sudoeste 24 Sudoeste 0 -- -- 20
2019-08-23 18:00:00 35.9 7 Noroeste 24 Sudoeste 0 -- -- 21
2019-08-23 17:00:00 36.1 9 Sudoeste 26 Sur 0 -- -- 21
2019-08-23 16:00:00 36.1 13 Sur 29 Sur 0 -- -- 21
2019-08-23 15:00:00 35 14 Sudoeste 27 Sur 0 -- -- 23
2019-08-23 14:00:00 34.3 12 Sudoeste 27 Sur 0 -- -- 25
2019-08-23 13:00:00 32.6 12 Oeste 27 Sudoeste 0 -- -- 29
2019-08-23 12:00:00 31.7 11 Sur 21 Oeste 0 -- -- 27
2019-08-23 11:00:00 29.6 5 Sudoeste 13 Sur 0 -- -- 27
2019-08-23 10:00:00 25.4 0 Calma 6 Este 0 -- -- 32
2019-08-23 09:00:00 17.9 3 Norte 7 Nordeste 0 -- -- 45
2019-08-23 08:00:00 16.3 3 Nordeste 8 Norte 0 -- -- 43
2019-08-23 07:00:00 17.4 3 Noroeste 10 Noroeste 0 -- -- 39
2019-08-23 06:00:00 18.6 7 Norte 12 Norte 0 -- -- 36
2019-08-23 05:00:00 19.9 7 Nordeste 17 Nordeste 0 -- -- 35
2019-08-23 04:00:00 19.7 5 Nordeste 11 Nordeste 0 -- -- 39
2019-08-23 03:00:00 20.4 3 Nordeste 7 Nordeste 0 -- -- 37
2019-08-23 02:00:00 21.4 0 Calma 8 Nordeste 0 -- -- 38
2019-08-23 01:00:00 23.1 6 Nordeste 11 Nordeste 0 -- -- 35
2019-08-23 00:00:00 22.5 3 Nordeste 6 Nordeste 0 -- -- 43
2019-08-22 23:00:00 23.1 3 Norte 9 Noroeste 0 -- -- 42
2019-08-22 22:00:00 25.2 0 Calma 6 Norte 0 -- -- 39
2019-08-22 21:00:00 29.5 0 Calma 13 Sur 0 -- -- 33
2019-08-22 20:00:00 33.8 8 Sudoeste 19 Sur 0 -- -- 26
2019-08-22 19:00:00 34.6 9 Sudoeste 23 Sudoeste 0 -- -- 25
2019-08-22 18:00:00 35.6 12 Sudoeste 25 Sur 0 -- -- 24
2019-08-22 17:00:00 35.1 12 Sur 32 Sudeste 0 -- -- 24
2019-08-22 16:00:00 34.8 14 Sur 28 Nordeste 0 -- -- 25
2019-08-22 15:00:00 33.9 10 Sudeste 27 Sudeste 0 -- -- 27
2019-08-22 14:00:00 33.2 15 Sudeste 24 Sudeste 0 -- -- 27
2019-08-22 13:00:00 32.8 11 Sur 21 Sudeste 0 -- -- 30
2019-08-22 12:00:00 29.9 5 Norte 14 Nordeste 0 -- -- 35
2019-08-22 11:00:00 27.4 7 Nordeste 15 Nordeste 0 -- -- 42
2019-08-22 10:00:00 24.5 4 Nordeste 9 Nordeste 0 -- -- 46
2019-08-22 09:00:00 18.3 0 Calma 6 Norte 0 -- -- 63
2019-08-22 08:00:00 15.3 0 Calma 7 Nordeste 0 -- -- 72
2019-08-22 07:00:00 15.8 0 Calma 5 Noroeste 0 -- -- 70
2019-08-22 06:00:00 17.2 3 Norte 6 Norte 0 -- -- 62
2019-08-22 05:00:00 17.6 5 Nordeste 9 Noroeste 0 -- -- 60
2019-08-22 04:00:00 18.3 4 Noroeste 8 Nordeste 0 -- -- 57
2019-08-22 03:00:00 19.6 5 Norte 10 Sudeste 0 -- -- 53
2019-08-22 02:00:00 20.6 5 Norte 8 Este 0 -- -- 51
2019-08-22 01:00:00 20.3 3 Nordeste 6 Nordeste 0 -- -- 54
2019-08-22 00:00:00 20.8 0 Calma 6 Norte 0 -- -- 53
2019-08-21 23:00:00 22.3 3 Nordeste 10 Nordeste 0 -- -- 51
2019-08-21 22:00:00 24.4 4 Nordeste 9 Norte 0 -- -- 48
2019-08-21 21:00:00 26.9 6 Noroeste 10 Noroeste 0 -- -- 41
2019-08-21 20:00:00 30 0 Calma 8 Noroeste 0 -- -- 36
2019-08-21 19:00:00 31.1 3 Noroeste 10 Este 0 -- -- 33
2019-08-21 18:00:00 32 6 Sudeste 22 Sur 0 -- -- 32
2019-08-21 17:00:00 32.9 10 Oeste 26 Oeste 0 -- -- 32
2019-08-21 16:00:00 33.7 12 Sudoeste 24 Sur 0 -- -- 32
2019-08-21 15:00:00 32.3 10 Sur 24 Sur 0 -- -- 35
2019-08-21 14:00:00 30.7 9 Sudoeste 23 Sudoeste 0 -- -- 39
2019-08-21 13:00:00 28.4 6 Sudoeste 20 Sudoeste 0 -- -- 42
2019-08-21 12:00:00 27 5 Sudoeste 13 Oeste 0 -- -- 43
2019-08-21 11:00:00 24.4 5 Nordeste 17 Nordeste 0 -- -- 43
2019-08-21 10:00:00 22.7 12 Nordeste 22 Nordeste 0 -- -- 47
2019-08-21 09:00:00 19.8 6 Nordeste 14 Nordeste 0 -- -- 53
2019-08-21 08:00:00 18.2 4 Nordeste 15 Nordeste 0 -- -- 56
2019-08-21 07:00:00 19.3 8 Nordeste 20 Nordeste 0 -- -- 52
2019-08-21 06:00:00 19.8 10 Nordeste 20 Nordeste 0 -- -- 50
2019-08-21 05:00:00 20.6 11 Norte 24 Norte 0 -- -- 48
2019-08-21 04:00:00 21.7 13 Norte 26 Norte 0 -- -- 45
2019-08-21 03:00:00 22.5 12 Norte 28 Norte 0 -- -- 43
2019-08-21 02:00:00 22.7 8 Norte 27 Nordeste 0 -- -- 42
2019-08-21 01:00:00 23.9 12 Norte 27 Nordeste 0 -- -- 38
2019-08-21 00:00:00 24.8 12 Norte 21 Norte 0 -- -- 33
2019-08-20 23:00:00 25.3 8 Norte 22 Norte 0 -- -- 33
2019-08-20 22:00:00 25.9 8 Norte 15 Norte 0 -- -- 34
2019-08-20 21:00:00 27.5 7 Noroeste 12 Noroeste 0 -- -- 31
2019-08-20 20:00:00 32 5 Este 15 Sudeste 0 -- -- 22
2019-08-20 19:00:00 32.7 7 Sudeste 22 Este 0 -- -- 21
2019-08-20 18:00:00 33.3 6 Este 22 Este 0 -- -- 21
2019-08-20 17:00:00 33.1 6 Norte 21 Este 0 -- -- 22
2019-08-20 16:00:00 32.2 10 Este 22 Este 0 -- -- 22
2019-08-20 15:00:00 31.2 12 Sudeste 31 Nordeste 0 -- -- 22
2019-08-20 14:00:00 29.5 17 Nordeste 39 Nordeste 0 -- -- 29
2019-08-20 13:00:00 28.4 15 Nordeste 39 Nordeste 0 -- -- 32
2019-08-20 12:00:00 27.4 14 Nordeste 28 Nordeste 0 -- -- 37
2019-08-20 11:00:00 25.1 10 Nordeste 28 Nordeste 0 -- -- 42
2019-08-20 10:00:00 22.1 13 Nordeste 27 Norte 0 -- -- 50
2019-08-20 09:00:00 19.4 13 Norte 24 Norte 0 -- -- 59
2019-08-20 08:00:00 18.1 8 Nordeste 26 Nordeste 0 -- -- 62
2019-08-20 07:00:00 18.9 14 Norte 26 Norte 0 -- -- 59
2019-08-20 06:00:00 19.5 15 Norte 29 Norte 0 -- -- 58
2019-08-20 05:00:00 18 4 Este 15 Nordeste 0 -- -- 60
2019-08-20 04:00:00 19.8 5 Este 22 Norte 0 -- -- 55
2019-08-20 03:00:00 20.7 5 Este 31 Noroeste 0 -- -- 50
2019-08-20 02:00:00 21.8 14 Noroeste 34 Noroeste 0 -- -- 50
2019-08-20 01:00:00 22.5 21 Noroeste 38 Noroeste 0 -- -- 48
2019-08-20 00:00:00 23.6 15 Noroeste 25 Noroeste 0 -- -- 41
2019-08-19 23:00:00 24.9 5 Norte 23 Norte 0 -- -- 35
2019-08-19 22:00:00 25.3 13 Noroeste 26 Noroeste 0 -- -- 35
2019-08-19 21:00:00 26.7 5 Noroeste 13 Noroeste 0 -- -- 36
2019-08-19 20:00:00 27.6 8 Norte 14 Noroeste 0 -- -- 33
2019-08-19 19:00:00 28.5 4 Norte 18 Noroeste 0 -- -- 33
2019-08-19 18:00:00 28 12 Norte 23 Oeste 0 -- -- 32
2019-08-19 17:00:00 28.7 9 Sur 15 Sudoeste 0 -- -- 35
2019-08-19 16:00:00 29.5 9 Sur 30 Sur 0 -- -- 34
2019-08-19 15:00:00 29.5 6 Sur 22 Sur 0 -- -- 33
2019-08-19 14:00:00 28.9 10 Sur 20 Sudeste 0 -- -- 37
2019-08-19 13:00:00 27.5 8 Sudoeste 21 Sur 0 -- -- 42
2019-08-19 12:00:00 26.7 10 Sudeste 19 Sur 0 -- -- 45
2019-08-19 11:00:00 24.7 4 Sur 17 Nordeste 0 -- -- 51
2019-08-19 10:00:00 22.3 5 Nordeste 13 Nordeste 0 -- -- 59
2019-08-19 09:00:00 18.4 3 Nordeste 9 Noroeste 0 -- -- 72
2019-08-19 08:00:00 15.6 2 Noroeste 7 Noroeste 0 -- -- 81
2019-08-19 07:00:00 15.7 0 Calma 8 Noroeste 0 -- -- 81
2019-08-19 06:00:00 16.9 0 Calma 10 Noroeste 0 -- -- 77
2019-08-19 05:00:00 18 3 Oeste 10 Nordeste 0 -- -- 73
2019-08-19 04:00:00 19.9 4 Nordeste 12 Noroeste 0 -- -- 68
2019-08-19 03:00:00 21.1 0 Calma 23 Noroeste 0 -- -- 63
2019-08-19 02:00:00 21.7 15 Noroeste 37 Noroeste 0 -- -- 63
2019-08-19 01:00:00 22.4 16 Noroeste 38 Noroeste 0 -- -- 64
2019-08-19 00:00:00 23.6 18 Noroeste 39 Noroeste 0 -- -- 59
2019-08-18 23:00:00 24.5 23 Noroeste 41 Norte 0 -- -- 55
2019-08-18 22:00:00 25.8 22 Noroeste 39 Noroeste 0 -- -- 49
2019-08-18 21:00:00 27.5 18 Noroeste 30 Noroeste 0 -- -- 45
2019-08-18 20:00:00 29.6 19 Noroeste 31 Noroeste 0 -- -- 42
2019-08-18 19:00:00 32.1 9 Sudoeste 23 Sudoeste 0 -- -- 30
2019-08-18 18:00:00 33.8 9 Sudoeste 26 Sudoeste 0 -- -- 26
2019-08-18 17:00:00 32.8 10 Noroeste 28 Norte 0 -- -- 28
2019-08-18 16:00:00 32.7 15 Noroeste 29 Noroeste 0 -- -- 27
2019-08-18 15:00:00 32.3 10 Norte 23 Noroeste 0 -- -- 26
2019-08-18 14:00:00 31.8 12 Oeste 28 Noroeste 0 -- -- 24
2019-08-18 13:00:00 28.7 15 Noroeste 28 Noroeste 0 -- -- 34
2019-08-18 12:00:00 28 8 Sur 18 Sur 0 -- -- 34
2019-08-18 11:00:00 26.8 9 Sur 15 Sur 0 -- -- 37
2019-08-18 10:00:00 25.6 5 Nordeste 11 Nordeste 0 -- -- 42
2019-08-18 09:00:00 21.8 3 Nordeste 10 Noroeste 0 -- -- 51
2019-08-18 08:00:00 18.4 4 Norte 9 Este 0 -- -- 57
2019-08-18 07:00:00 21.3 9 Norte 28 Noroeste 0 -- -- 51
2019-08-18 06:00:00 19.6 7 Noroeste 21 Noroeste 0 -- -- 56
2019-08-18 05:00:00 21.4 6 Norte 12 Nordeste 0 -- -- 50
2019-08-18 04:00:00 23.6 5 Nordeste 22 Noroeste 0 -- -- 45
2019-08-18 03:00:00 23.9 10 Norte 33 Noroeste 0 -- -- 50
2019-08-18 02:00:00 25 11 Norte 24 Noroeste 0 -- -- 51
2019-08-18 01:00:00 26 9 Norte 38 Noroeste 0 -- -- 48
2019-08-18 00:00:00 27.1 20 Noroeste 41 Norte 0 -- -- 47
2019-08-17 23:00:00 23.1 4 Este 15 Norte 0 -- -- 43
2019-08-17 22:00:00 26 3 Norte 9 Oeste 0 -- -- 30
2019-08-17 21:00:00 31 6 Oeste 14 Oeste 0 -- -- 25
2019-08-17 20:00:00 36 8 Sudoeste 24 Sudoeste 0 -- -- 18
2019-08-17 19:00:00 36.4 12 Sur 23 Sur 0 -- -- 19
2019-08-17 18:00:00 37.2 13 Sudoeste 24 Sudoeste 0 -- -- 19
2019-08-17 17:00:00 37.1 13 Sudoeste 22 Sudoeste 0 -- -- 17
2019-08-17 16:00:00 36.4 11 Sur 27 Sur 0 -- -- 21
2019-08-17 15:00:00 35.6 12 Sur 24 Sur 0 -- -- 23
2019-08-17 14:00:00 34.9 12 Sur 25 Oeste 0 -- -- 25
2019-08-17 13:00:00 34.4 10 Sur 20 Sudoeste 0 -- -- 23
2019-08-17 12:00:00 32.5 8 Sur 14 Sur 0 -- -- 30
2019-08-17 11:00:00 29.4 4 Nordeste 18 Nordeste 0 -- -- 33
2019-08-17 10:00:00 25.9 12 Nordeste 20 Nordeste 0 -- -- 42
2019-08-17 09:00:00 21.5 5 Norte 12 Norte 0 -- -- 53
2019-08-17 08:00:00 17.7 8 Norte 13 Norte 0 -- -- 61
2019-08-17 07:00:00 17.2 6 Noroeste 14 Nordeste 0 -- -- 61
2019-08-17 06:00:00 19.3 7 Norte 13 Nordeste 0 -- -- 55
2019-08-17 05:00:00 20.2 5 Norte 16 Nordeste 0 -- -- 52
2019-08-17 04:00:00 21.6 4 Nordeste 10 Este 0 -- -- 48
2019-08-17 03:00:00 24.3 6 Este 16 Norte 0 -- -- 41
2019-08-17 02:00:00 25.7 9 Norte 33 Noroeste 0 -- -- 39
2019-08-17 01:00:00 26.7 11 Noroeste 28 Noroeste 0 -- -- 36
2019-08-17 00:00:00 27.1 18 Noroeste 45 Noroeste 0 -- -- 38
2019-08-16 23:00:00 28.4 24 Noroeste 44 Noroeste 0 -- -- 38
2019-08-16 22:00:00 30.7 23 Noroeste 41 Norte 0 -- -- 36
2019-08-16 21:00:00 32.8 11 Norte 26 Noroeste 0 -- -- 26
2019-08-16 20:00:00 35.9 11 Noroeste 22 Oeste 0 -- -- 20
2019-08-16 19:00:00 37.3 12 Sudoeste 35 Sur 0 -- -- 23
2019-08-16 18:00:00 37 15 Sudoeste 27 Sudoeste 0 -- -- 24
2019-08-16 17:00:00 37.3 13 Sudoeste 30 Oeste 0 -- -- 24
2019-08-16 16:00:00 36.2 11 Sur 27 Sudoeste 0 -- -- 26
2019-08-16 15:00:00 35.8 7 Sudeste 25 Sur 0 -- -- 27
2019-08-16 14:00:00 35.2 10 Sur 22 Sudeste 0 -- -- 27
2019-08-16 13:00:00 33.9 6 Sur 18 Sur 0 -- -- 31
2019-08-16 12:00:00 32.3 7 Sudeste 16 Sudeste 0 -- -- 35
2019-08-16 11:00:00 30.4 8 Sur 13 Sur 0 -- -- 38
2019-08-16 10:00:00 26.9 7 Nordeste 17 Nordeste 0 -- -- 47
2019-08-16 09:00:00 23 6 Norte 10 Nordeste 0 -- -- 58
2019-08-16 08:00:00 18.7 4 Noroeste 7 Noroeste 0 -- -- 69
2019-08-16 07:00:00 19.1 0 Calma 9 Norte 0 -- -- 67
2019-08-16 06:00:00 19.4 6 Norte 9 Norte 0 -- -- 66
2019-08-16 05:00:00 20.7 3 Norte 8 Noroeste 0 -- -- 62
2019-08-16 04:00:00 21.5 2 Norte 8 Este 0 -- -- 59
2019-08-16 03:00:00 23.7 3 Nordeste 10 Este 0 -- -- 53
2019-08-16 02:00:00 26.1 4 Nordeste 35 Noroeste 0 -- -- 47
2019-08-16 01:00:00 26.9 21 Noroeste 45 Noroeste 0 -- -- 46
2019-08-16 00:00:00 28 26 Noroeste 46 Norte 0 -- -- 43
2019-08-15 23:00:00 29.5 22 Noroeste 43 Norte 0 -- -- 38
2019-08-15 22:00:00 31.5 15 Noroeste 34 Noroeste 0 -- -- 29
2019-08-15 21:00:00 32.7 14 Noroeste 35 Noroeste 0 -- -- 26
2019-08-15 20:00:00 35.4 10 Noroeste 27 Noroeste 0 -- -- 21
2019-08-15 19:00:00 36.6 13 Noroeste 27 Noroeste 0 -- -- 19
2019-08-15 18:00:00 37.6 9 Norte 27 Norte 0 -- -- 18
2019-08-15 17:00:00 37.3 10 Noroeste 34 Sudoeste 0 -- -- 19
2019-08-15 16:00:00 36.8 9 Noroeste 28 Sur 0 -- -- 20
2019-08-15 15:00:00 36 13 Sudoeste 24 Sudoeste 0 -- -- 22
2019-08-15 14:00:00 35.4 8 Sudoeste 23 Sudoeste 0 -- -- 24
2019-08-15 13:00:00 33.8 7 Sudeste 17 Este 0 -- -- 25
2019-08-15 12:00:00 32 4 Nordeste 13 Norte 0 -- -- 30
2019-08-15 11:00:00 29.7 5 Nordeste 14 Este 0 -- -- 37
2019-08-15 10:00:00 26.9 4 Nordeste 12 Nordeste 0 -- -- 44
2019-08-15 09:00:00 22.5 7 Nordeste 12 Nordeste 0 -- -- 56
2019-08-15 08:00:00 19.7 4 Norte 11 Nordeste 0 -- -- 63
2019-08-15 07:00:00 21.8 5 Este 18 Norte 0 -- -- 57
2019-08-15 06:00:00 23.2 8 Nordeste 25 Noroeste 0 -- -- 55
2019-08-15 05:00:00 23.6 18 Noroeste 35 Noroeste 0 -- -- 56
2019-08-15 04:00:00 24 16 Noroeste 34 Noroeste 0 -- -- 55
2019-08-15 03:00:00 24.8 5 Nordeste 22 Noroeste 0 -- -- 55
2019-08-15 02:00:00 25.8 17 Noroeste 36 Noroeste 0 -- -- 52
2019-08-15 01:00:00 26.4 19 Noroeste 44 Noroeste 0 -- -- 51
2019-08-15 00:00:00 27.6 25 Noroeste 50 Noroeste 0 -- -- 47
2019-08-14 23:00:00 28.5 20 Noroeste 40 Noroeste 0 -- -- 42
2019-08-14 22:00:00 28.6 10 Norte 18 Norte 0 -- -- 34
2019-08-14 21:00:00 30.9 7 Norte 19 Norte 0 -- -- 30
2019-08-14 20:00:00 33.7 9 Norte 24 Norte 0 -- -- 25
2019-08-14 19:00:00 34.7 11 Noroeste 26 Noroeste 0 -- -- 23
2019-08-14 18:00:00 35.3 10 Noroeste 31 Norte 0 -- -- 20
2019-08-14 17:00:00 35.1 10 Norte 29 Norte 0 -- -- 19
2019-08-14 16:00:00 35 16 Sudoeste 33 Oeste 0 -- -- 20
2019-08-14 15:00:00 34.3 12 Sur 22 Sudeste 0 -- -- 20
2019-08-14 14:00:00 33.2 7 Este 17 Este 0 -- -- 20
2019-08-14 13:00:00 32.4 9 Sudoeste 19 Sudoeste 0 -- -- 20
2019-08-14 12:00:00 30.6 5 Sur 13 Sur 0 -- -- 20
2019-08-14 11:00:00 27.6 4 Nordeste 13 Nordeste 0 -- -- 26
2019-08-14 10:00:00 23.7 8 Nordeste 15 Nordeste 0 -- -- 31
2019-08-14 09:00:00 19.3 4 Norte 12 Norte 0 -- -- 42
2019-08-14 08:00:00 15.5 5 Norte 15 Noroeste 0 -- -- 48
2019-08-14 07:00:00 15.3 8 Norte 14 Norte 0 -- -- 49
2019-08-14 06:00:00 16.1 6 Norte 11 Norte 0 -- -- 47
2019-08-14 05:00:00 15.3 3 Norte 6 Noroeste 0 -- -- 46
2019-08-14 04:00:00 16 0 Calma 7 Nordeste 0 -- -- 44
2019-08-14 03:00:00 17.9 2 Norte 10 Nordeste 0 -- -- 39
2019-08-14 02:00:00 19.7 4 Nordeste 15 Noroeste 0 -- -- 35
2019-08-14 01:00:00 20.8 3 Norte 12 Norte 0 -- -- 33
2019-08-14 00:00:00 21.6 7 Nordeste 20 Noroeste 0 -- -- 32
2019-08-13 23:00:00 25.4 11 Norte 23 Norte 0 -- -- 24
2019-08-13 22:00:00 26.5 11 Norte 27 Noroeste 0 -- -- 23
2019-08-13 21:00:00 28.1 16 Noroeste 31 Noroeste 0 -- -- 21
2019-08-13 20:00:00 30.5 14 Noroeste 27 Noroeste 0 -- -- 19
2019-08-13 19:00:00 31.9 12 Norte 26 Oeste 0 -- -- 18
2019-08-13 18:00:00 32.7 10 Sudoeste 24 Sur 0 -- -- 20
2019-08-13 17:00:00 32.3 9 Sur 26 Sudoeste 0 -- -- 20
2019-08-13 16:00:00 31.7 7 Sudoeste 21 Sur 0 -- -- 20
2019-08-13 15:00:00 30.4 8 Sur 18 Sudoeste 0 -- -- 21
2019-08-13 14:00:00 29.8 10 Sudoeste 18 Sur 0 -- -- 23
2019-08-13 13:00:00 28.1 4 Nordeste 22 Nordeste 0 -- -- 27
2019-08-13 12:00:00 26.1 11 Nordeste 23 Norte 0 -- -- 30
2019-08-13 11:00:00 23.4 7 Nordeste 21 Nordeste 0 -- -- 36
2019-08-13 10:00:00 20.1 11 Nordeste 26 Nordeste 0 -- -- 43
2019-08-13 09:00:00 17.5 11 Nordeste 22 Nordeste 0 -- -- 48
2019-08-13 08:00:00 14.2 11 Nordeste 18 Nordeste 0 -- -- 53
2019-08-13 07:00:00 15.9 9 Nordeste 18 Nordeste 0 -- -- 47
2019-08-13 06:00:00 15.3 8 Nordeste 13 Nordeste 0 -- -- 47
2019-08-13 05:00:00 17.5 7 Nordeste 22 Norte 0 -- -- 40
2019-08-13 04:00:00 18.7 9 Norte 18 Norte 0 -- -- 36
2019-08-13 03:00:00 19.1 10 Norte 23 Nordeste 0 -- -- 35
2019-08-13 02:00:00 16.4 4 Nordeste 9 Nordeste 0 -- -- 40
2019-08-13 01:00:00 18 6 Nordeste 12 Nordeste 0 -- -- 37
2019-08-13 00:00:00 19.3 4 Nordeste 17 Norte 0 -- -- 35
2019-08-12 23:00:00 21.6 5 Norte 16 Norte 0 -- -- 28
2019-08-12 22:00:00 22.1 0 Calma 12 Noroeste 0 -- -- 29
2019-08-12 21:00:00 24.1 5 Norte 19 Nordeste 0 -- -- 24
2019-08-12 20:00:00 25.8 9 Nordeste 21 Nordeste 0 -- -- 23
2019-08-12 19:00:00 27.5 9 Nordeste 23 Norte 0 -- -- 21
2019-08-12 18:00:00 29.2 10 Nordeste 27 Norte 0 -- -- 19
2019-08-12 17:00:00 28.6 11 Nordeste 28 Nordeste 0 -- -- 22
2019-08-12 16:00:00 28 14 Nordeste 27 Nordeste 0 -- -- 23
2019-08-12 15:00:00 27.1 10 Nordeste 28 Nordeste 0 -- -- 24
2019-08-12 14:00:00 26 10 Nordeste 24 Nordeste 0 -- -- 28
2019-08-12 13:00:00 25.1 9 Este 25 Nordeste 0 -- -- 31
2019-08-12 12:00:00 23.6 9 Norte 24 Norte 0 -- -- 33
2019-08-12 11:00:00 21.7 9 Nordeste 32 Este 0 -- -- 39
2019-08-12 10:00:00 19.7 12 Nordeste 27 Nordeste 0 -- -- 42
2019-08-12 09:00:00 17.2 8 Este 15 Este 0 -- -- 49
2019-08-12 08:00:00 14.9 7 Nordeste 21 Norte 0 -- -- 55
2019-08-12 07:00:00 15.6 12 Norte 32 Norte 0 -- -- 53
2019-08-12 06:00:00 16 14 Norte 30 Norte 0 -- -- 52
2019-08-12 05:00:00 15.8 11 Norte 20 Norte 0 -- -- 52
2019-08-12 04:00:00 16 7 Norte 26 Norte 0 -- -- 56
2019-08-12 03:00:00 16.4 12 Norte 35 Noroeste 0 -- -- 56
2019-08-12 02:00:00 17.1 22 Noroeste 45 Noroeste 0 -- -- 55
2019-08-12 01:00:00 17.7 28 Noroeste 51 Noroeste 0 -- -- 53
2019-08-12 00:00:00 18.4 33 Noroeste 56 Noroeste 0 -- -- 50
2019-08-11 23:00:00 19.7 27 Noroeste 53 Noroeste 0 -- -- 46
2019-08-11 22:00:00 20.9 11 Norte 33 Norte 0 -- -- 39
2019-08-11 21:00:00 22.3 9 Norte 32 Noroeste 0 -- -- 31
2019-08-11 20:00:00 24.6 15 Noroeste 31 Noroeste 0 -- -- 29
2019-08-11 19:00:00 25.7 14 Norte 32 Oeste 0 -- -- 28
2019-08-11 18:00:00 26.6 15 Noroeste 48 Noroeste 0 -- -- 26
2019-08-11 17:00:00 26.4 15 Noroeste 37 Noroeste 0 -- -- 27
2019-08-11 16:00:00 25.8 17 Norte 40 Norte 0 -- -- 29
2019-08-11 15:00:00 23.7 12 Norte 32 Noroeste 0 -- -- 36
2019-08-11 14:00:00 23.8 16 Noroeste 32 Norte 0 -- -- 38
2019-08-11 13:00:00 22.7 13 Norte 34 Oeste 0 -- -- 43
2019-08-11 12:00:00 21 20 Noroeste 37 Noroeste 0 -- -- 54
2019-08-11 11:00:00 19.8 21 Noroeste 44 Noroeste 0 -- -- 58
2019-08-11 10:00:00 18.6 19 Noroeste 42 Noroeste 0 -- -- 62
2019-08-11 09:00:00 17.5 15 Noroeste 31 Noroeste 0 -- -- 65
2019-08-11 08:00:00 16 6 Nordeste 36 Noroeste 0 -- -- 70
2019-08-11 07:00:00 16.1 21 Noroeste 40 Noroeste 0 -- -- 71
2019-08-11 06:00:00 17 3 Este 33 Noroeste 0 -- -- 67
2019-08-11 05:00:00 18.2 7 Norte 16 Norte 0 -- -- 62
2019-08-11 04:00:00 20.2 6 Nordeste 38 Noroeste 0 -- -- 56
2019-08-11 03:00:00 19.9 22 Noroeste 55 Norte 0 -- -- 56
2019-08-11 02:00:00 20.5 27 Noroeste 48 Noroeste 0 -- -- 54
2019-08-11 01:00:00 21.3 28 Noroeste 50 Noroeste 0 -- -- 52
2019-08-11 00:00:00 22.2 26 Noroeste 44 Noroeste 0 -- -- 47
2019-08-10 23:00:00 23.4 21 Noroeste 36 Noroeste 0 -- -- 43
2019-08-10 22:00:00 24.6 14 Noroeste 28 Noroeste 0 -- -- 39
2019-08-10 21:00:00 26.8 6 Oeste 17 Sur 0 -- -- 36
2019-08-10 20:00:00 28.6 6 Sur 19 Sur 0 -- -- 32
2019-08-10 19:00:00 29.7 14 Sur 23 Sur 0 -- -- 31
2019-08-10 18:00:00 29.9 14 Sur 24 Sur 0 -- -- 32
2019-08-10 17:00:00 29.2 11 Sur 24 Sur 0 -- -- 33
2019-08-10 16:00:00 29.1 9 Sur 20 Sudeste 0 -- -- 35
2019-08-10 15:00:00 28 8 Sudoeste 20 Sur 0 -- -- 37
2019-08-10 14:00:00 26.7 6 Sur 17 Sur 0 -- -- 42
2019-08-10 13:00:00 25.1 4 Sur 13 Sudoeste 0 -- -- 48
2019-08-10 12:00:00 23.7 5 Nordeste 14 Este 0 -- -- 49
2019-08-10 11:00:00 22.4 4 Sudeste 13 Sudeste 0 -- -- 56
2019-08-10 10:00:00 20.1 2 Este 12 Nordeste 0 -- -- 68
2019-08-10 09:00:00 16.2 6 Nordeste 14 Nordeste 0 -- -- 84
2019-08-10 08:00:00 13 2 Norte 11 Norte 0 -- -- 92
2019-08-10 07:00:00 13.5 6 Nordeste 12 Nordeste 0 -- -- 93
2019-08-10 06:00:00 13.2 3 Norte 12 Nordeste 0 -- -- 92
2019-08-10 05:00:00 13.3 4 Norte 9 Norte 0 -- -- 91
2019-08-10 04:00:00 14.1 3 Norte 8 Noroeste 0 -- -- 89
2019-08-10 03:00:00 15.3 3 Nordeste 13 Nordeste 0 -- -- 85
2019-08-10 02:00:00 14.8 4 Nordeste 12 Noroeste 0 -- -- 90
2019-08-10 01:00:00 15.2 5 Nordeste 10 Este 0 -- -- 93
2019-08-10 00:00:00 15.3 0 Calma 6 Este 0 -- -- 92
2019-08-09 23:00:00 16 3 Norte 8 Noroeste 0 -- -- 92
2019-08-09 22:00:00 16.8 0 Calma 9 Noroeste 0 -- -- 89
2019-08-09 21:00:00 18.5 0 Calma 0 Calma 0 -- -- 84
2019-08-09 20:00:00 19.6 0 Calma 11 Nordeste 0 -- -- 78
2019-08-09 19:00:00 20.1 0 Calma 7 Este 0 -- -- 79
2019-08-09 18:00:00 18.7 0 Calma 10 Este 0.2 -- -- 84
2019-08-09 17:00:00 17.3 4 Sudeste 18 Norte 1.2 -- -- 89
2019-08-09 16:00:00 19.4 14 Oeste 32 Oeste 0.2 -- -- 74
2019-08-09 15:00:00 20.9 13 Sudoeste 30 Sudoeste 0.2 -- -- 84
2019-08-09 14:00:00 21.9 14 Sur 24 Oeste 0.2 -- -- 86
2019-08-09 13:00:00 21 10 Sur 35 Sudoeste 0.6 -- -- 92
2019-08-09 12:00:00 21.1 19 Sudoeste 32 Sudoeste 1.6 -- -- 89
2019-08-09 11:00:00 21 13 Sur 25 Sur 0.4 -- -- 93
2019-08-09 10:00:00 20.1 7 Sudoeste 17 Sudoeste 1.8 -- -- 93
2019-08-09 09:00:00 20 8 Sudoeste 23 Sudoeste 2 -- -- 92
2019-08-09 08:00:00 20.4 4 Sudoeste 19 Sudoeste 0.8 -- -- 90
2019-08-09 07:00:00 20.9 10 Sudoeste 23 Sudoeste 0 -- -- 83
2019-08-09 06:00:00 20.9 6 Sudoeste 13 Sur 0 -- -- 82
2019-08-09 05:00:00 20.6 6 Sudoeste 13 Sur 0 -- -- 81
2019-08-09 04:00:00 20.4 4 Sudoeste 15 Oeste 0 -- -- 81
2019-08-09 03:00:00 21 6 Sudoeste 12 Sudoeste 0 -- -- 77
2019-08-09 02:00:00 22.7 11 Sudoeste 26 Sudoeste 0 -- -- 68
2019-08-09 01:00:00 21.1 0 Calma 8 Sudeste 0 -- -- 67
2019-08-09 00:00:00 23.5 5 Sudeste 21 Sudoeste 0 -- -- 61
2019-08-08 23:00:00 25.8 11 Sudoeste 24 Sudoeste 0 -- -- 54
2019-08-08 22:00:00 26.8 10 Oeste 29 Sudoeste 0 -- -- 49
2019-08-08 21:00:00 28.2 14 Oeste 30 Oeste 0 -- -- 48
2019-08-08 20:00:00 30.5 17 Sudoeste 31 Oeste 0 -- -- 43
2019-08-08 19:00:00 31.3 18 Sudoeste 39 Oeste 0 -- -- 42
2019-08-08 18:00:00 31.5 21 Sudoeste 41 Sudoeste 0 -- -- 43
2019-08-08 17:00:00 32.1 20 Sudoeste 37 Oeste 0 -- -- 41
2019-08-08 16:00:00 31.8 14 Sudoeste 31 Oeste 0 -- -- 41
2019-08-08 15:00:00 30 15 Sur 33 Sur 0 -- -- 46
2019-08-08 14:00:00 29.3 18 Sudoeste 29 Sur 0 -- -- 48
2019-08-08 13:00:00 28.2 14 Sur 25 Sur 0 -- -- 52
2019-08-08 12:00:00 27.6 11 Sur 23 Sur 0 -- -- 53
2019-08-08 11:00:00 24.8 5 Sur 13 Sudoeste 0 -- -- 59
2019-08-08 10:00:00 22.9 5 Sudeste 8 Sudeste 0 -- -- 60
2019-08-08 09:00:00 20.5 0 Calma 0 Calma 0 -- -- 67
2019-08-08 08:00:00 19.1 0 Calma 3 Este 0 -- -- 74
2019-08-08 07:00:00 18.5 0 Calma -- -- 0 -- -- 75
2019-08-08 06:00:00 17.8 0 Calma -- -- 0 -- -- 76
2019-08-08 05:00:00 17.2 0 Calma 4 Nordeste 0 -- -- 77
2019-08-08 04:00:00 17.1 0 Calma 5 Norte 0 -- -- 76
2019-08-08 03:00:00 18.1 0 Calma 5 Noroeste 0 -- -- 74
2019-08-08 02:00:00 18.9 0 Calma 2 Oeste 0 -- -- 71
2019-08-08 01:00:00 18.3 2 Norte 9 Sudoeste 0 -- -- 73
2019-08-08 00:00:00 18.1 2 Noroeste 6 Norte 0 -- -- 72
2019-08-07 23:00:00 19.8 0 Calma 6 Nordeste 0 -- -- 67
2019-08-07 22:00:00 22.5 2 Noroeste 8 Sudoeste 0 -- -- 59
2019-08-07 21:00:00 24.5 7 Oeste 14 Sudoeste 0 -- -- 53
2019-08-07 20:00:00 25.8 5 Sudoeste 14 Sudoeste 0 -- -- 49
2019-08-07 19:00:00 25.7 8 Sur 21 Sudoeste 0 -- -- 52
2019-08-07 18:00:00 26.1 9 Sur 24 Sudoeste 0 -- -- 51
2019-08-07 17:00:00 25 10 Sur 17 Sudoeste 0 -- -- 51
2019-08-07 16:00:00 24.5 5 Sur 15 Sudoeste 0 -- -- 54
2019-08-07 15:00:00 23.7 9 Sur 22 Sudoeste 0 -- -- 62
2019-08-07 14:00:00 23.2 10 Oeste 17 Oeste 0 -- -- 62
2019-08-07 13:00:00 23 9 Sur 14 Sur 0 -- -- 65
2019-08-07 12:00:00 23 8 Sur 13 Sur 0 -- -- 63
2019-08-07 11:00:00 22.9 7 Sur 13 Sur 0 -- -- 63
2019-08-07 10:00:00 21.9 0 Calma 10 Sudoeste 0 -- -- 66
2019-08-07 09:00:00 19.9 7 Sudoeste 12 Sudoeste 0 -- -- 73
2019-08-07 08:00:00 18.3 0 Calma -- -- 0 -- -- 76
2019-08-07 07:00:00 18.5 0 Calma 5 Sudeste 0 -- -- 74
2019-08-07 06:00:00 20.2 0 Calma 4 Sur 0 -- -- 68
2019-08-07 05:00:00 21.2 2 Norte 10 Sur 0 -- -- 66
2019-08-07 04:00:00 22.2 6 Sur 11 Sur 0 -- -- 64
2019-08-07 03:00:00 21.9 6 Norte 9 Noroeste 0 -- -- 63
2019-08-07 02:00:00 22.5 0 Calma 7 Norte 0 -- -- 62
2019-08-07 01:00:00 24 3 Norte 26 Noroeste 0 -- -- 57
2019-08-07 00:00:00 25 5 Noroeste 18 Norte 0 -- -- 54
2019-08-06 23:00:00 25.8 7 Noroeste 36 Noroeste 0 -- -- 51
2019-08-06 22:00:00 26.5 19 Noroeste 32 Noroeste 0 -- -- 49
2019-08-06 21:00:00 29.7 10 Noroeste 25 Oeste 0 -- -- 38
2019-08-06 20:00:00 32.3 10 Sudoeste 24 Sudoeste 0 -- -- 29
2019-08-06 19:00:00 32.8 14 Sudoeste 26 Sur 0 -- -- 29
2019-08-06 18:00:00 34.2 13 Sur 34 Oeste 0 -- -- 26
2019-08-06 17:00:00 34.1 14 Sudoeste 27 Sudoeste 0 -- -- 27
2019-08-06 16:00:00 34.2 15 Sudoeste 25 Sudoeste 0 -- -- 27
2019-08-06 15:00:00 33.5 9 Sudoeste 26 Sudoeste 0 -- -- 30
2019-08-06 14:00:00 32.5 13 Sur 24 Sur 0 -- -- 32
2019-08-06 13:00:00 31.8 9 Sur 22 Sur 0 -- -- 34
2019-08-06 12:00:00 30.4 11 Sur 18 Sur 0 -- -- 36
2019-08-06 11:00:00 28.8 8 Sudoeste 14 Sur 0 -- -- 38
2019-08-06 10:00:00 26.1 5 Este 11 Nordeste 0 -- -- 44
2019-08-06 09:00:00 22.1 4 Nordeste 13 Nordeste 0 -- -- 54
2019-08-06 08:00:00 17.7 6 Norte 11 Norte 0 -- -- 67
2019-08-06 07:00:00 18.5 5 Nordeste 10 Nordeste 0 -- -- 63
2019-08-06 06:00:00 18.2 4 Norte 9 Norte 0 -- -- 62
2019-08-06 05:00:00 19.2 5 Norte 10 Nordeste 0 -- -- 59
2019-08-06 04:00:00 20.6 2 Norte 6 Noroeste 0 -- -- 55
2019-08-06 03:00:00 22.9 0 Calma 16 Nordeste 0 -- -- 50
2019-08-06 02:00:00 25.1 4 Sudeste 37 Noroeste 0 -- -- 45
2019-08-06 01:00:00 25.5 23 Noroeste 42 Noroeste 0 -- -- 46
2019-08-06 00:00:00 26.7 23 Noroeste 38 Noroeste 0 -- -- 43
2019-08-05 23:00:00 28.2 12 Noroeste 24 Noroeste 0 -- -- 38
2019-08-05 22:00:00 26.9 0 Calma 12 Noroeste 0 -- -- 31
2019-08-05 21:00:00 31.9 5 Noroeste 20 Sudoeste 0 -- -- 24
2019-08-05 20:00:00 34.8 10 Sudoeste 22 Sur 0 -- -- 20
2019-08-05 19:00:00 35.2 9 Sur 22 Sur 0 -- -- 20
2019-08-05 18:00:00 35.5 7 Sur 22 Sudeste 0 -- -- 15
2019-08-05 17:00:00 35.4 12 Sudoeste 29 Sudoeste 0 -- -- 15
2019-08-05 16:00:00 35.2 11 Sur 26 Sudoeste -- -- -- 16
2019-08-05 15:00:00 34.6 11 Sur 28 Sudoeste 0 -- -- 18
2019-08-05 14:00:00 33.1 12 Sudoeste 20 Sudoeste 0 -- -- 22
2019-08-05 13:00:00 31.6 10 Sudoeste 21 Sur 0 -- -- 32
2019-08-05 12:00:00 29.9 8 Sudoeste 17 Sudoeste 0 -- -- 38
2019-08-05 11:00:00 27.2 4 Sudoeste 15 Nordeste 0 -- -- 45
2019-08-05 10:00:00 25.3 8 Nordeste 18 Nordeste 0 -- -- 51
2019-08-05 09:00:00 21.2 4 Nordeste 10 Nordeste 0 -- -- 64
2019-08-05 08:00:00 16.5 3 Nordeste 9 Noroeste 0 -- -- 76
2019-08-05 07:00:00 16.5 3 Noroeste 11 Nordeste 0 -- -- 76
2019-08-05 06:00:00 17.2 4 Norte 12 Norte 0 -- -- 74
2019-08-05 05:00:00 17.6 8 Norte 12 Norte 0 -- -- 72
2019-08-05 04:00:00 18.2 2 Norte 8 Noroeste 0 -- -- 69
2019-08-05 03:00:00 19.3 5 Norte 13 Nordeste 0 -- -- 65
2019-08-05 02:00:00 20.2 5 Norte 9 Norte 0 -- -- 61
2019-08-05 01:00:00 19.4 3 Nordeste 7 Noroeste 0 -- -- 55
2019-08-05 00:00:00 21.1 0 Calma 8 Norte 0 -- -- 48
2019-08-04 23:00:00 24.2 2 Sudoeste 12 Sudoeste 0 -- -- 40
2019-08-04 22:00:00 26.8 3 Oeste 14 Sudoeste 0 -- -- 33
2019-08-04 21:00:00 31.6 10 Sudoeste 22 Sur 0 -- -- 24
2019-08-04 20:00:00 34.1 13 Sudoeste 23 Sudoeste 0 -- -- 21
2019-08-04 19:00:00 35.3 11 Sudoeste 25 Sur 0 -- -- 20
2019-08-04 18:00:00 35.7 11 Sudoeste 32 Sur 0 -- -- 21
2019-08-04 17:00:00 35.3 13 Oeste 28 Sur 0 -- -- 21
2019-08-04 16:00:00 35.1 15 Sur 28 Sur 0 -- -- 25
2019-08-04 15:00:00 34.1 13 Sudoeste 28 Sudoeste 0 -- -- 26
2019-08-04 14:00:00 33.3 12 Sudoeste 26 Sur 0 -- -- 30
2019-08-04 13:00:00 32.5 10 Sur 20 Sur 0 -- -- 33
2019-08-04 12:00:00 30.8 8 Sudoeste 19 Sudoeste 0 -- -- 35
2019-08-04 11:00:00 29.2 6 Oeste 10 Sudoeste 0 -- -- 38
2019-08-04 10:00:00 27.2 3 Este 13 Nordeste 0 -- -- 44
2019-08-04 09:00:00 23 4 Nordeste 9 Norte 0 -- -- 55
2019-08-04 08:00:00 18.2 5 Noroeste 8 Noroeste 0 -- -- 66
2019-08-04 07:00:00 18 5 Noroeste 8 Norte 0 -- -- 66
2019-08-04 06:00:00 19 6 Norte 12 Norte 0 -- -- 63
2019-08-04 05:00:00 20.6 6 Norte 12 Nordeste 0 -- -- 58
2019-08-04 04:00:00 23.1 3 Este 21 Noroeste 0 -- -- 50
2019-08-04 03:00:00 24 13 Noroeste 45 Noroeste 0 -- -- 49
2019-08-04 02:00:00 24.9 24 Noroeste 42 Noroeste 0 -- -- 48
2019-08-04 01:00:00 25.5 21 Noroeste 38 Noroeste 0 -- -- 45
2019-08-04 00:00:00 26.6 20 Noroeste 40 Noroeste 0 -- -- 42
2019-08-03 23:00:00 27.8 21 Noroeste 37 Noroeste 0 -- -- 42
2019-08-03 22:00:00 29.9 17 Noroeste 31 Noroeste 0 -- -- 35
2019-08-03 21:00:00 32.1 4 Noroeste 13 Oeste 0 -- -- 24
2019-08-03 20:00:00 35.2 9 Sudoeste 30 Sudoeste 0 -- -- 20
2019-08-03 19:00:00 35.8 8 Sur 35 Sudoeste 0 -- -- 20
2019-08-03 18:00:00 36 12 Sur 22 Sudoeste 0 -- -- 20
2019-08-03 17:00:00 35.5 10 Sudeste 29 Sur 0 -- -- 19
2019-08-03 16:00:00 35.6 13 Sudoeste 25 Sur 0 -- -- 19
2019-08-03 15:00:00 35 13 Sudoeste 31 Sur 0 -- -- 23
2019-08-03 14:00:00 33.6 13 Oeste 27 Oeste 0 -- -- 26
2019-08-03 13:00:00 32.7 8 Sudoeste 18 Sur 0 -- -- 28
2019-08-03 12:00:00 31.5 5 Sudoeste 16 Sudoeste 0 -- -- 30
2019-08-03 11:00:00 29.3 6 Sur 12 Sudoeste 0 -- -- 35
2019-08-03 10:00:00 26.9 0 Calma 5 Nordeste 0 -- -- 41
2019-08-03 09:00:00 22 3 Noroeste 10 Nordeste 0 -- -- 53
2019-08-03 08:00:00 17.4 6 Norte 13 Norte 0 -- -- 66
2019-08-03 07:00:00 18.1 3 Norte 9 Norte 0 -- -- 62
2019-08-03 06:00:00 17.8 0 Calma 7 Noroeste 0 -- -- 64
2019-08-03 05:00:00 19.6 3 Norte 8 Noroeste 0 -- -- 59
2019-08-03 04:00:00 20.3 0 Calma 5 Oeste 0 -- -- 56
2019-08-03 03:00:00 22.4 3 Noroeste 11 Este 0 -- -- 52
2019-08-03 02:00:00 24.6 8 Este 13 Este 0 -- -- 48
2019-08-03 01:00:00 25.9 5 Nordeste 27 Noroeste 0 -- -- 44
2019-08-03 00:00:00 26.4 14 Noroeste 27 Noroeste 0 -- -- 45
2019-08-02 23:00:00 23 3 Norte 6 Norte 0 -- -- 30
2019-08-02 22:00:00 26.3 5 Nordeste 9 Nordeste 0 -- -- 26
2019-08-02 21:00:00 31.8 5 Oeste 16 Sudoeste 0 -- -- 20
2019-08-02 20:00:00 34.6 10 Sur 21 Sur 0 -- -- 16
2019-08-02 19:00:00 36.1 8 Sur 19 Sur 0 -- -- 16
2019-08-02 18:00:00 36.1 10 Sudoeste 22 Sur 0 -- -- 16
2019-08-02 17:00:00 35.9 12 Sur 22 Sur 0 -- -- 17
2019-08-02 16:00:00 34.8 13 Sudoeste 29 Sudoeste 0 -- -- 17
2019-08-02 15:00:00 34.2 10 Sudoeste 25 Sur 0 -- -- 22
2019-08-02 14:00:00 32.7 6 Oeste 21 Oeste 0 -- -- 26
2019-08-02 13:00:00 31.6 5 Oeste 17 Sudoeste 0 -- -- 29
2019-08-02 12:00:00 30.1 5 Oeste 14 Oeste 0 -- -- 32
2019-08-02 11:00:00 28.1 4 Nordeste 17 Este 0 -- -- 35
2019-08-02 10:00:00 25.2 9 Nordeste 16 Nordeste 0 -- -- 41
2019-08-02 09:00:00 20.6 5 Norte 10 Este 0 -- -- 52
2019-08-02 08:00:00 15.8 6 Norte 10 Norte 0 -- -- 63
2019-08-02 07:00:00 15.6 6 Noroeste 12 Norte 0 -- -- 62
2019-08-02 06:00:00 17.5 8 Norte 15 Norte 0 -- -- 56
2019-08-02 05:00:00 17.4 6 Norte 9 Norte 0 -- -- 56
2019-08-02 04:00:00 17.5 3 Norte 6 Noroeste 0 -- -- 55
2019-08-02 03:00:00 18.4 2 Norte 7 Norte 0 -- -- 52
2019-08-02 02:00:00 20.6 4 Norte 7 Norte 0 -- -- 47
2019-08-02 01:00:00 24.2 3 Este 39 Oeste 0 -- -- 39
2019-08-02 00:00:00 25.1 18 Noroeste 40 Noroeste 0 -- -- 38
2019-08-01 23:00:00 26.4 22 Noroeste 38 Noroeste 0 -- -- 34
2019-08-01 22:00:00 28.2 19 Noroeste 32 Noroeste 0 -- -- 29
2019-08-01 21:00:00 31.6 10 Sudoeste 23 Oeste 0 -- -- 24
2019-08-01 20:00:00 33.8 11 Sudoeste 28 Sudoeste 0 -- -- 20
2019-08-01 19:00:00 34.5 14 Sudoeste 26 Sudoeste 0 -- -- 20
2019-08-01 18:00:00 34.5 19 Sur 33 Sur 0 -- -- 21
2019-08-01 17:00:00 35 17 Sudoeste 26 Sudoeste 0 -- -- 22
2019-08-01 16:00:00 34.6 13 Sudoeste 28 Oeste 0 -- -- 23
2019-08-01 15:00:00 33.5 10 Sur 28 Sur 0 -- -- 25
2019-08-01 14:00:00 32.8 11 Sur 23 Sur 0 -- -- 26
2019-08-01 13:00:00 31.4 9 Sudoeste 22 Sudoeste 0 -- -- 30
2019-08-01 12:00:00 30 8 Sur 19 Sur 0 -- -- 33
2019-08-01 11:00:00 28.1 4 Sudeste 12 Nordeste 0 -- -- 38
2019-08-01 10:00:00 25.5 6 Nordeste 13 Nordeste 0 -- -- 37
2019-08-01 09:00:00 21.2 5 Norte 10 Nordeste 0 -- -- 46
2019-08-01 08:00:00 16.2 3 Norte 8 Norte 0 -- -- 58
2019-08-01 07:00:00 16.9 4 Noroeste 9 Noroeste 0 -- -- 54
2019-08-01 06:00:00 17 2 Noroeste 6 Noroeste 0 -- -- 53
2019-08-01 05:00:00 17.5 2 Noroeste 9 Norte 0 -- -- 49
2019-08-01 04:00:00 19.6 0 Calma 14 Este 0 -- -- 43
2019-08-01 03:00:00 19.1 4 Nordeste 8 Norte 0 -- -- 46
2019-08-01 02:00:00 20.2 3 Noroeste 6 Noroeste 0 -- -- 42
2019-08-01 01:00:00 21.6 2 Norte 8 Norte 0 -- -- 40
2019-08-01 00:00:00 24.1 3 Norte 12 Nordeste 0 -- -- 35
2019-07-31 23:00:00 26.3 5 Este 28 Noroeste 0 -- -- 32
2019-07-31 22:00:00 27.5 18 Noroeste 32 Noroeste 0 -- -- 32
2019-07-31 21:00:00 29.1 18 Noroeste 32 Noroeste 0 -- -- 30
2019-07-31 20:00:00 32.4 0 Calma 15 Sudoeste 0 -- -- 17
2019-07-31 19:00:00 33.4 5 Sudoeste 19 Sudeste 0 -- -- 16
2019-07-31 18:00:00 33 11 Sur 27 Sudoeste 0 -- -- 17
2019-07-31 17:00:00 34.3 8 Sur 29 Sur 0 -- -- 20
2019-07-31 16:00:00 33.7 17 Sur 27 Sur 0 -- -- 23
2019-07-31 15:00:00 32.8 9 Sudoeste 24 Sur 0 -- -- 23
2019-07-31 14:00:00 32.2 8 Sudoeste 21 Este 0 -- -- 25
2019-07-31 13:00:00 30.4 7 Este 20 Este 0 -- -- 29
2019-07-31 12:00:00 29.3 8 Este 15 Este 0 -- -- 27
2019-07-31 11:00:00 26.7 8 Nordeste 15 Nordeste 0 -- -- 30
2019-07-31 10:00:00 23.8 9 Nordeste 15 Nordeste 0 -- -- 35
2019-07-31 09:00:00 21.5 5 Nordeste 18 Norte 0 -- -- 35
2019-07-31 08:00:00 19.8 9 Norte 17 Nordeste 0 -- -- 36
2019-07-31 07:00:00 19.9 9 Norte 22 Norte 0 -- -- 35
2019-07-31 06:00:00 19.5 5 Norte 23 Norte 0 -- -- 36
2019-07-31 05:00:00 20.9 11 Norte 26 Norte 0 -- -- 34
2019-07-31 04:00:00 20.8 9 Norte 22 Norte 0 -- -- 34
2019-07-31 03:00:00 19.7 8 Nordeste 16 Nordeste 0 -- -- 35
2019-07-31 02:00:00 21.9 8 Norte 21 Norte 0 -- -- 30
2019-07-31 01:00:00 20.4 9 Norte 18 Norte 0 -- -- 32
2019-07-31 00:00:00 19.9 7 Nordeste 12 Norte 0 -- -- 32
2019-07-30 23:00:00 22.2 7 Norte 14 Norte 0 -- -- 28
2019-07-30 22:00:00 24 9 Norte 21 Norte 0 -- -- 25
2019-07-30 21:00:00 27 11 Norte 23 Norte 0 -- -- 22
2019-07-30 20:00:00 29.2 11 Norte 28 Noroeste 0 -- -- 19
2019-07-30 19:00:00 30.2 13 Norte 30 Noroeste 0 -- -- 18
2019-07-30 18:00:00 30.6 12 Nordeste 27 Norte 0 -- -- 18
2019-07-30 17:00:00 30.5 9 Este 26 Nordeste 0 -- -- 19
2019-07-30 16:00:00 30.3 7 Este 28 Este 0 -- -- 21
2019-07-30 15:00:00 29.2 9 Nordeste 21 Nordeste 0 -- -- 23
2019-07-30 14:00:00 27.8 9 Este 22 Nordeste 0 -- -- 26
2019-07-30 13:00:00 25.9 7 Este 22 Nordeste 0 -- -- 30
2019-07-30 12:00:00 23.9 8 Nordeste 24 Este 0 -- -- 34
2019-07-30 11:00:00 22.3 9 Este 22 Nordeste 0 -- -- 36
2019-07-30 10:00:00 20.1 10 Norte 21 Noroeste 0 -- -- 37
2019-07-30 09:00:00 17.3 12 Noroeste 23 Noroeste 0 -- -- 47
2019-07-30 08:00:00 14.5 8 Norte 15 Norte 0 -- -- 52
2019-07-30 07:00:00 14.2 6 Nordeste 30 Noroeste 0 -- -- 53
2019-07-30 06:00:00 15.5 18 Norte 41 Noroeste 0 -- -- 54
2019-07-30 05:00:00 16.2 18 Norte 41 Noroeste 0 -- -- 50
2019-07-30 04:00:00 17.1 16 Noroeste 37 Noroeste 0 -- -- 47
2019-07-30 03:00:00 17.3 22 Noroeste 42 Noroeste 0 -- -- 48
2019-07-30 02:00:00 17.6 22 Noroeste 50 Noroeste 0 -- -- 50
2019-07-30 01:00:00 18.6 33 Noroeste 56 Noroeste 0 -- -- 49
2019-07-30 00:00:00 19.5 29 Noroeste 57 Noroeste 0 -- -- 47
2019-07-29 23:00:00 21 23 Norte 45 Noroeste 0 -- -- 40
2019-07-29 22:00:00 22.5 21 Norte 40 Norte 0 -- -- 35
2019-07-29 21:00:00 24.6 18 Norte 36 Noroeste 0 -- -- 30
2019-07-29 20:00:00 27.2 14 Noroeste 32 Noroeste 0 -- -- 27
2019-07-29 19:00:00 28.5 19 Noroeste 35 Norte 0 -- -- 25
2019-07-29 18:00:00 29.2 18 Noroeste 34 Noroeste 0 -- -- 24
2019-07-29 17:00:00 29.6 14 Noroeste 32 Noroeste 0 -- -- 26
2019-07-29 16:00:00 29.2 15 Noroeste 32 Noroeste 0 -- -- 24
2019-07-29 15:00:00 28.5 16 Noroeste 34 Noroeste 0 -- -- 29
2019-07-29 14:00:00 28.3 11 Oeste 26 Oeste 0 -- -- 36
2019-07-29 13:00:00 26.5 11 Noroeste 31 Noroeste 0 -- -- 42
2019-07-29 12:00:00 24.6 20 Noroeste 37 Noroeste 0 -- -- 47
2019-07-29 11:00:00 23.3 21 Noroeste 40 Noroeste 0 -- -- 53
2019-07-29 10:00:00 21.9 22 Noroeste 51 Noroeste 0 -- -- 58
2019-07-29 09:00:00 20.2 27 Noroeste 49 Noroeste 0 -- -- 57
2019-07-29 08:00:00 18.7 19 Noroeste 47 Noroeste 0 -- -- 50
2019-07-29 07:00:00 18.8 14 Norte 39 Noroeste 0 -- -- 36
2019-07-29 06:00:00 19.9 18 Noroeste 49 Noroeste 0 -- -- 31
2019-07-29 05:00:00 19.8 16 Noroeste 35 Noroeste 0 -- -- 26
2019-07-29 04:00:00 16.8 0 Calma 6 Este 0 -- -- 65
2019-07-29 03:00:00 18.9 0 Calma 9 Noroeste 0 -- -- 59
2019-07-29 02:00:00 22 2 Este 14 Nordeste 0 -- -- 50
2019-07-29 01:00:00 23.8 4 Nordeste 35 Noroeste 0 -- -- 47
2019-07-29 00:00:00 24.8 18 Noroeste 35 Noroeste 0 -- -- 42
2019-07-28 23:00:00 23.9 11 Noroeste 24 Noroeste 0 -- -- 39
2019-07-28 22:00:00 26.1 9 Oeste 16 Oeste 0 -- -- 34
2019-07-28 21:00:00 30 9 Oeste 24 Sudoeste 0 -- -- 28
2019-07-28 20:00:00 31 10 Sur 24 Sur 0 -- -- 28
2019-07-28 19:00:00 31.4 12 Sudoeste 28 Oeste 0 -- -- 28
2019-07-28 18:00:00 32.2 13 Sudoeste 26 Oeste 0 -- -- 28
2019-07-28 17:00:00 30.6 13 Sudoeste 28 Sudoeste 0 -- -- 30
2019-07-28 16:00:00 31.1 8 Sudeste 28 Sudoeste 0 -- -- 30
2019-07-28 15:00:00 30.7 11 Sur 30 Sur 0 -- -- 30
2019-07-28 14:00:00 29 10 Sudeste 31 Sur 0 -- -- 35
2019-07-28 13:00:00 28.7 12 Sudoeste 26 Sudoeste 0 -- -- 36
2019-07-28 12:00:00 26.8 6 Oeste 16 Oeste 0 -- -- 40
2019-07-28 11:00:00 25.7 9 Sur 17 Sur 0 -- -- 41
2019-07-28 10:00:00 23.2 5 Nordeste 14 Nordeste 0 -- -- 48
2019-07-28 09:00:00 19.8 6 Nordeste 14 Norte 0 -- -- 57
2019-07-28 08:00:00 15.9 7 Nordeste 14 Norte 0 -- -- 70
2019-07-28 07:00:00 15.7 5 Nordeste 13 Nordeste 0 -- -- 72
2019-07-28 06:00:00 16.1 9 Nordeste 13 Nordeste 0 -- -- 71
2019-07-28 05:00:00 16.6 4 Nordeste 9 Norte 0 -- -- 68
2019-07-28 04:00:00 18.8 4 Norte 30 Noroeste 0 -- -- 61
2019-07-28 03:00:00 20.1 15 Noroeste 26 Noroeste 0 -- -- 57
2019-07-28 02:00:00 21 11 Norte 35 Noroeste 0 -- -- 55
2019-07-28 01:00:00 21.4 18 Norte 38 Noroeste 0 -- -- 56
2019-07-28 00:00:00 21.8 21 Norte 36 Noroeste 0 -- -- 57
2019-07-27 23:00:00 22.9 19 Norte 37 Noroeste 0 -- -- 53
2019-07-26 12:00:00 -- -- -- -- -- -- -- -- --
2019-07-26 11:00:00 21.4 23 Noroeste 42 Noroeste 0 -- -- 46
2019-07-26 10:00:00 19.2 25 Noroeste 53 Noroeste 0 -- -- 54
2019-07-26 09:00:00 17 24 Noroeste 46 Noroeste 0 -- -- 63
2019-07-26 08:00:00 16.5 26 Noroeste 49 Noroeste 0 -- -- 68
2019-07-26 07:00:00 17.3 17 Noroeste 45 Noroeste 0 -- -- 68
2019-07-26 06:00:00 18.2 29 Noroeste 46 Noroeste 0 -- -- 67
2019-07-26 05:00:00 18.7 18 Noroeste 38 Noroeste 0 -- -- 72
2019-07-26 04:00:00 19.6 18 Noroeste 38 Noroeste 0 -- -- 69
2019-07-26 03:00:00 20.7 13 Noroeste 40 Norte 0 -- -- 71
2019-07-26 02:00:00 21 19 Noroeste 37 Noroeste 0 -- -- 70
2019-07-26 01:00:00 22.1 18 Noroeste 41 Noroeste 0 -- -- 67
2019-07-26 00:00:00 23.7 14 Noroeste 35 Noroeste 0 -- -- 62